Terminal Aerodrome Forecast
Issued by NWS

Home | Current Version | Previous Version | Text Only | Print | Product List | Glossary On
Versions: 1 2 3 4 5 6 7 8 9 10 11 12 13 14 15 16 17
000
FTUS45 KREV 222108 AAA
TAFRNO
TAF AMD
KRNO 222108Z 2221/2318 16010G18KT P6SM FEW015 SCT050
     FM230000 21008G17KT 5SM -SN BR SCT012 OVC025
     FM230200 17006KT 1SM -SN BR SCT010 OVC018
     FM230900 28010G18KT P6SM VCSH FEW012 BKN030=

USA.gov is the U.S. government's official web portal to all federal, state and local government web resources and services.